Berwyn, Canada
Current Conditions -  °F | °C
As of 5:00 AM on Friday 19 Dec 2014 (Local Time) from CYPE Reporting Station
Scattered Clouds Scattered Clouds  
Wind Chill:   Ceiling: Unl
Heat Index:   Visibility: 15mi
Dew Point:   Wind: 5mph
Humidity: 85%   Direction: 330°NNW
Pressure: 29.66"   Gusts: NA
Location:  56.15°N, 117.75°W
Report Text: CYPE 191200Z 33004KT 15SM FEW060 SCT220 M13/M15 A2966 RMK SC1CI2 SLP087
Loading
Personal Weather Stations






























Interactive Weather Map New forecast layout! Learn more

10-Day Weather Forecast

Advertisements
Track Severe Weather on mobile